createdAt,value
2024-04-15T00:02:27.007Z,66.47
2024-04-15T00:04:55.011Z,66.32
2024-04-15T00:07:22.883Z,66.54
2024-04-15T00:09:50.941Z,66.27
2024-04-15T00:12:18.984Z,66.02
2024-04-15T00:14:46.849Z,66.42
2024-04-15T00:17:14.757Z,66.04
2024-04-15T00:19:42.773Z,66.31
2024-04-15T00:22:10.850Z,66.74
2024-04-15T00:24:39.101Z,67.11
2024-04-15T00:27:07.025Z,67.33
2024-04-15T00:29:35.107Z,67.41
2024-04-15T00:32:03.347Z,66.95
2024-04-15T00:34:32.934Z,67.12
2024-04-15T00:37:01.124Z,67.51
2024-04-15T00:39:29.236Z,67.55
2024-04-15T00:41:57.405Z,67.66
2024-04-15T00:44:34.942Z,67.49
2024-04-15T00:47:04.359Z,67.10
2024-04-15T00:49:34.971Z,67.10
2024-04-15T00:52:04.963Z,67.42
2024-04-15T00:54:35.190Z,67.41
2024-04-15T00:57:04.168Z,67.23
2024-04-15T00:59:34.518Z,67.40
2024-04-15T01:02:02.860Z,67.82
2024-04-15T01:04:31.026Z,68.18
2024-04-15T01:06:59.460Z,67.92
2024-04-15T01:09:27.336Z,68.18
2024-04-15T01:11:55.484Z,67.96
2024-04-15T01:14:23.426Z,67.91
2024-04-15T01:16:51.385Z,68.01
2024-04-15T01:19:19.536Z,68.03
2024-04-15T01:21:47.644Z,67.99
2024-04-15T01:24:15.849Z,67.93
2024-04-15T01:26:50.123Z,67.63
2024-04-15T01:29:18.007Z,67.84
2024-04-15T01:31:45.868Z,67.84
2024-04-15T01:34:13.867Z,67.64
2024-04-15T01:36:42.033Z,67.72
2024-04-15T01:39:10.669Z,67.07
2024-04-15T01:41:39.000Z,66.35
2024-04-15T01:44:07.340Z,65.97
2024-04-15T01:46:35.205Z,66.18
2024-04-15T01:49:03.644Z,66.11
2024-04-15T01:51:31.599Z,65.94
2024-04-15T01:54:00.143Z,65.65
2024-04-15T01:56:28.024Z,65.86
2024-04-15T01:58:55.969Z,66.29
2024-04-15T02:01:23.963Z,66.34
2024-04-15T02:03:52.268Z,66.41
2024-04-15T02:06:20.275Z,67.38
2024-04-15T02:08:48.388Z,67.37
2024-04-15T02:11:16.215Z,67.32
2024-04-15T02:13:44.306Z,67.40
2024-04-15T02:16:12.387Z,67.57
2024-04-15T02:18:40.808Z,67.74
2024-04-15T02:21:09.003Z,68.17
2024-04-15T02:23:37.150Z,68.37
2024-04-15T02:26:05.042Z,68.21
2024-04-15T02:28:33.062Z,68.67
2024-04-15T02:31:01.824Z,69.07
2024-04-15T02:33:30.138Z,69.11
2024-04-15T02:35:58.284Z,69.17
2024-04-15T02:38:26.363Z,69.28
2024-04-15T02:40:56.064Z,69.50
2024-04-15T02:43:24.311Z,69.51
2024-04-15T02:45:52.188Z,69.24
2024-04-15T02:48:20.231Z,69.51
2024-04-15T02:50:48.457Z,69.93
2024-04-15T02:53:16.422Z,70.36
2024-04-15T02:55:44.296Z,69.75
2024-04-15T02:58:12.323Z,69.49
2024-04-15T03:00:40.601Z,69.33
2024-04-15T03:03:08.619Z,69.12
2024-04-15T03:05:46.769Z,69.01
2024-04-15T03:08:14.828Z,69.23
2024-04-15T03:10:42.855Z,69.04
2024-04-15T03:13:10.876Z,69.27
2024-04-15T03:15:38.937Z,69.41
2024-04-15T03:18:06.899Z,69.40
2024-04-15T03:20:35.344Z,69.89
2024-04-15T03:23:03.864Z,70.13
2024-04-15T03:25:31.701Z,70.44
2024-04-15T03:27:59.784Z,70.37
2024-04-15T03:30:27.911Z,70.02
2024-04-15T03:32:56.207Z,70.42
2024-04-15T03:35:24.333Z,70.74
2024-04-15T03:37:52.145Z,70.82
2024-04-15T03:40:20.087Z,71.22
2024-04-15T03:42:49.345Z,71.29
2024-04-15T03:45:18.101Z,71.57
2024-04-15T03:47:46.618Z,71.70
2024-04-15T03:50:14.786Z,71.77
2024-04-15T03:52:42.654Z,71.64
2024-04-15T03:55:10.574Z,71.65
2024-04-15T03:57:39.398Z,71.30
2024-04-15T04:00:08.590Z,70.45
2024-04-15T04:02:36.660Z,69.86
2024-04-15T04:05:06.568Z,69.28
2024-04-15T04:07:38.764Z,68.88
2024-04-15T04:10:09.753Z,69.11
2024-04-15T04:12:37.832Z,69.19
2024-04-15T04:15:06.439Z,69.09
2024-04-15T04:17:34.526Z,69.38
2024-04-15T04:20:03.011Z,69.98
2024-04-15T04:22:31.424Z,70.39
2024-04-15T04:24:59.546Z,70.38
2024-04-15T04:27:28.503Z,70.21
2024-04-15T04:29:56.690Z,70.38
2024-04-15T04:32:25.087Z,70.51
2024-04-15T04:34:53.274Z,70.47
2024-04-15T04:37:21.194Z,70.45
2024-04-15T04:39:51.794Z,70.27
2024-04-15T04:42:19.882Z,70.23
2024-04-15T04:44:48.060Z,70.30
2024-04-15T04:47:17.188Z,70.47
2024-04-15T04:49:45.397Z,70.60
2024-04-15T04:52:13.442Z,70.58
2024-04-15T04:54:41.608Z,70.86
2024-04-15T04:57:10.020Z,71.00
2024-04-15T04:59:38.891Z,70.83
2024-04-15T05:02:08.004Z,71.47
2024-04-15T05:04:36.421Z,72.13
2024-04-15T05:07:04.714Z,72.27
2024-04-15T05:09:32.929Z,72.29
2024-04-15T05:12:00.950Z,72.39
2024-04-15T05:14:28.802Z,72.28
2024-04-15T05:16:56.664Z,71.98
2024-04-15T05:19:24.908Z,71.78
2024-04-15T05:21:53.271Z,72.48
2024-04-15T05:24:21.166Z,72.32
2024-04-15T05:26:49.065Z,72.21
2024-04-15T05:29:17.400Z,71.60
2024-04-15T05:31:45.478Z,71.70
2024-04-15T05:34:13.671Z,71.56
2024-04-15T05:36:41.937Z,70.84
2024-04-15T05:39:09.946Z,70.34
2024-04-15T05:41:37.901Z,70.30
2024-04-15T05:44:07.705Z,70.11
2024-04-15T05:46:47.744Z,69.76
2024-04-15T05:49:15.798Z,68.27
2024-04-15T05:51:44.970Z,68.24
2024-04-15T05:54:13.455Z,68.28
2024-04-15T05:56:41.683Z,67.82
2024-04-15T05:59:09.822Z,67.22
2024-04-15T06:01:37.884Z,67.08
2024-04-15T06:04:07.024Z,67.07
2024-04-15T06:06:35.179Z,66.69
2024-04-15T06:09:03.455Z,66.43
2024-04-15T06:11:31.669Z,66.15
2024-04-15T06:13:59.793Z,65.70
2024-04-15T06:16:27.962Z,65.04
2024-04-15T06:18:55.998Z,64.86
2024-04-15T06:21:24.216Z,64.52
2024-04-15T06:23:52.024Z,64.62
2024-04-15T06:26:20.121Z,64.36
2024-04-15T06:28:48.144Z,64.48
2024-04-15T06:31:16.263Z,64.37
2024-04-15T06:33:44.262Z,64.19
2024-04-15T06:36:12.569Z,63.92
2024-04-15T06:38:40.425Z,63.84
2024-04-15T06:41:08.492Z,63.74
2024-04-15T06:43:36.858Z,63.61
2024-04-15T06:46:04.938Z,63.35
2024-04-15T06:48:33.228Z,63.37
2024-04-15T06:51:02.037Z,63.04
2024-04-15T06:53:30.163Z,63.10
2024-04-15T06:55:58.310Z,62.70
2024-04-15T06:58:27.808Z,62.81
2024-04-15T07:00:58.994Z,62.84
2024-04-15T07:03:27.252Z,62.57
2024-04-15T07:05:55.539Z,62.26
2024-04-15T07:08:23.443Z,62.23
2024-04-15T07:10:53.060Z,61.59
2024-04-15T07:13:21.053Z,60.70
2024-04-15T07:15:49.850Z,59.68
2024-04-15T07:18:17.924Z,58.97
2024-04-15T07:20:47.376Z,58.96
2024-04-15T07:23:15.417Z,58.07
2024-04-15T07:25:43.534Z,57.64
2024-04-15T07:28:11.489Z,57.00
2024-04-15T07:30:39.521Z,56.97
2024-04-15T07:33:07.955Z,56.83
2024-04-15T07:35:37.139Z,57.11
2024-04-15T07:38:05.470Z,56.17
2024-04-15T07:40:33.515Z,55.90
2024-04-15T07:43:01.994Z,54.72
2024-04-15T07:45:30.073Z,54.16
2024-04-15T07:47:57.990Z,53.53
2024-04-15T07:50:27.529Z,53.54
2024-04-15T07:52:55.724Z,52.54
2024-04-15T07:55:24.032Z,51.99
2024-04-15T07:57:52.236Z,51.33
2024-04-15T08:00:20.535Z,51.87
2024-04-15T08:02:48.907Z,50.00
2024-04-15T08:05:19.307Z,48.71
2024-04-15T08:07:47.366Z,49.43
2024-04-15T08:10:15.922Z,48.81
2024-04-15T08:12:46.255Z,47.58
2024-04-15T08:15:14.879Z,47.57
2024-04-15T08:17:44.198Z,47.84
2024-04-15T08:20:12.340Z,48.06
2024-04-15T08:22:42.006Z,45.67
2024-04-15T08:25:10.350Z,44.86
2024-04-15T08:27:38.698Z,45.95
2024-04-15T08:30:07.925Z,46.56
2024-04-15T08:32:37.597Z,44.79
2024-04-15T08:35:06.177Z,44.12
2024-04-15T08:37:34.181Z,44.47
2024-04-15T08:40:02.260Z,42.60
2024-04-15T08:42:54.538Z,41.38
2024-04-15T08:45:25.028Z,41.50
2024-04-15T08:47:54.804Z,40.62
2024-04-15T08:50:24.335Z,40.44
2024-04-15T08:52:54.886Z,38.33
2024-04-15T08:55:24.858Z,39.86
2024-04-15T08:57:54.068Z,40.12
2024-04-15T09:00:23.418Z,39.97
2024-04-15T09:02:55.223Z,40.17
2024-04-15T09:05:23.655Z,40.30
2024-04-15T09:07:51.921Z,40.76
2024-04-15T09:10:20.474Z,40.12
2024-04-15T09:12:49.528Z,40.31
2024-04-15T09:15:23.904Z,38.52
2024-04-15T09:17:53.785Z,38.25
2024-04-15T09:20:34.943Z,38.43
2024-04-15T09:23:11.304Z,37.83
2024-04-15T09:25:39.822Z,36.61
2024-04-15T09:28:08.011Z,36.01
2024-04-15T09:30:36.088Z,36.36
2024-04-15T09:33:06.771Z,36.84
2024-04-15T09:35:35.037Z,36.99
2024-04-15T09:38:04.531Z,35.03
2024-04-15T09:40:34.745Z,35.01
2024-04-15T09:43:04.400Z,35.03
2024-04-15T09:45:33.075Z,35.10
2024-04-15T09:48:01.976Z,34.86
2024-04-15T09:50:33.061Z,33.85
2024-04-15T09:53:02.468Z,33.36
2024-04-15T09:55:35.001Z,33.52
2024-04-15T09:58:04.688Z,32.48
2024-04-15T10:00:36.370Z,31.31
2024-04-15T10:03:14.606Z,30.70
2024-04-15T10:05:45.691Z,30.97
2024-04-15T10:08:14.910Z,30.55
2024-04-15T10:10:43.916Z,30.62
2024-04-15T10:13:12.483Z,30.83
2024-04-15T10:15:41.230Z,30.82
2024-04-15T10:18:13.714Z,30.78
2024-04-15T10:20:44.058Z,30.41
2024-04-15T10:23:16.920Z,30.78
2024-04-15T10:25:45.314Z,30.66
2024-04-15T10:28:16.207Z,28.45
2024-04-15T10:30:48.225Z,27.61
2024-04-15T10:33:21.223Z,27.04
2024-04-15T10:35:53.285Z,27.51
2024-04-15T10:38:21.664Z,26.62
2024-04-15T10:40:50.270Z,27.53
2024-04-15T10:43:20.096Z,27.63
2024-04-15T10:45:49.623Z,26.79
2024-04-15T10:48:18.207Z,26.04
2024-04-15T10:50:46.614Z,24.39
2024-04-15T10:53:16.290Z,25.01
2024-04-15T10:55:44.506Z,24.59
2024-04-15T10:58:13.993Z,24.73
2024-04-15T11:00:45.930Z,25.39
2024-04-15T11:03:14.373Z,24.81
2024-04-15T11:05:44.270Z,22.87
2024-04-15T11:08:14.887Z,23.47
2024-04-15T11:10:43.931Z,24.45
2024-04-15T11:13:12.498Z,25.09
2024-04-15T11:15:41.511Z,24.55
2024-04-15T11:18:16.910Z,24.21
2024-04-15T11:20:45.259Z,24.65
2024-04-15T11:23:14.499Z,24.62
2024-04-15T11:25:45.021Z,24.40
2024-04-15T11:28:17.832Z,24.36
2024-04-15T11:30:48.279Z,23.14
2024-04-15T11:33:17.600Z,23.14
2024-04-15T11:35:50.067Z,22.65
2024-04-15T11:38:21.519Z,21.74
2024-04-15T11:40:52.180Z,21.46
2024-04-15T11:43:21.499Z,21.77
2024-04-15T11:45:57.618Z,22.02
2024-04-15T11:48:26.620Z,21.29
2024-04-15T11:50:56.134Z,20.84
2024-04-15T11:53:27.071Z,20.26
2024-04-15T11:55:55.725Z,18.90
2024-04-15T11:58:24.294Z,19.39
2024-04-15T12:00:53.535Z,19.71
2024-04-15T12:03:22.459Z,19.30
2024-04-15T12:05:54.396Z,19.13
2024-04-15T12:08:23.211Z,19.31
2024-04-15T12:10:53.356Z,18.98
2024-04-15T12:13:21.374Z,18.63
2024-04-15T12:15:49.890Z,19.02
2024-04-15T12:18:17.928Z,18.38
2024-04-15T12:20:46.004Z,18.13
2024-04-15T12:23:14.275Z,18.31
2024-04-15T12:25:42.362Z,18.90
2024-04-15T12:28:10.871Z,18.22
2024-04-15T12:30:39.341Z,18.53
2024-04-15T12:33:07.606Z,18.20
2024-04-15T12:35:35.761Z,18.01
2024-04-15T12:38:04.078Z,17.91
2024-04-15T12:40:32.241Z,18.56
2024-04-15T12:43:00.554Z,18.23
2024-04-15T12:45:28.592Z,17.39
2024-04-15T12:47:56.754Z,17.21
2024-04-15T12:50:25.550Z,17.12
2024-04-15T12:52:54.307Z,17.07
2024-04-15T12:55:22.644Z,16.88
2024-04-15T12:57:51.036Z,17.00
2024-04-15T13:00:19.623Z,17.11
2024-04-15T13:02:47.841Z,16.87
2024-04-15T13:05:16.170Z,17.27
2024-04-15T13:07:44.402Z,17.56
2024-04-15T13:10:13.782Z,17.15
2024-04-15T13:12:46.047Z,16.40
2024-04-15T13:15:14.091Z,16.58
2024-04-15T13:17:42.169Z,16.84
2024-04-15T13:20:10.778Z,17.00
2024-04-15T13:22:39.218Z,16.40
2024-04-15T13:25:08.643Z,16.31
2024-04-15T13:27:39.319Z,16.44
2024-04-15T13:30:09.961Z,16.23
2024-04-15T13:32:39.433Z,16.54
2024-04-15T13:35:08.215Z,16.52
2024-04-15T13:37:36.501Z,16.34
2024-04-15T13:40:05.851Z,15.86
2024-04-15T13:42:34.079Z,15.97
2024-04-15T13:45:02.287Z,16.00
2024-04-15T13:47:30.531Z,16.26
2024-04-15T13:49:58.490Z,16.45
2024-04-15T13:52:26.603Z,16.61
2024-04-15T13:54:54.957Z,16.75
2024-04-15T13:57:23.218Z,16.72
2024-04-15T13:59:51.461Z,16.76
2024-04-15T14:02:21.711Z,16.85
2024-04-15T14:04:50.997Z,16.84
2024-04-15T14:07:19.073Z,16.40
2024-04-15T14:09:47.467Z,16.60
2024-04-15T14:12:15.405Z,16.91
2024-04-15T14:14:43.920Z,16.76
2024-04-15T14:17:13.458Z,16.78
2024-04-15T14:19:41.677Z,16.55
2024-04-15T14:22:09.958Z,16.55
2024-04-15T14:24:41.588Z,16.33
2024-04-15T14:27:10.776Z,16.26
2024-04-15T14:29:39.946Z,15.73
2024-04-15T14:32:07.876Z,15.94
2024-04-15T14:34:36.031Z,16.09
2024-04-15T14:37:04.774Z,16.11
2024-04-15T14:39:32.871Z,16.33
2024-04-15T14:42:00.855Z,16.50
2024-04-15T14:44:28.876Z,15.66
2024-04-15T14:46:56.747Z,15.61
2024-04-15T14:49:28.175Z,15.92
2024-04-15T14:51:57.414Z,16.42
2024-04-15T14:54:25.665Z,16.20
2024-04-15T14:56:54.283Z,16.37
2024-04-15T14:59:22.713Z,16.54
2024-04-15T15:01:50.836Z,16.89
2024-04-15T15:04:19.510Z,17.11
2024-04-15T15:06:47.685Z,17.38
2024-04-15T15:09:15.850Z,17.52
2024-04-15T15:11:43.969Z,17.89
2024-04-15T15:14:12.112Z,18.13
2024-04-15T15:16:40.766Z,18.20
2024-04-15T15:19:09.771Z,18.11
2024-04-15T15:21:38.204Z,18.65
2024-04-15T15:24:06.163Z,18.88
2024-04-15T15:26:38.605Z,18.14
2024-04-15T15:29:15.307Z,17.84
2024-04-15T15:31:43.703Z,17.46
2024-04-15T15:34:11.736Z,17.50
2024-04-15T15:36:40.601Z,18.20
2024-04-15T15:39:09.367Z,18.30
2024-04-15T15:41:37.894Z,18.04
2024-04-15T15:44:05.781Z,18.37
2024-04-15T15:46:34.131Z,18.81
2024-04-15T15:49:02.196Z,18.84
2024-04-15T15:51:30.434Z,19.02
2024-04-15T15:53:58.598Z,19.17
2024-04-15T15:56:26.626Z,18.84
2024-04-15T15:58:54.983Z,18.83
2024-04-15T16:01:23.064Z,18.87
2024-04-15T16:03:51.394Z,19.10
2024-04-15T16:06:19.578Z,19.38
2024-04-15T16:08:47.663Z,19.50
2024-04-15T16:11:16.298Z,19.88
2024-04-15T16:13:45.715Z,20.06
2024-04-15T16:16:13.983Z,20.29
2024-04-15T16:18:42.120Z,20.65
2024-04-15T16:21:10.290Z,20.67
2024-04-15T16:23:38.144Z,20.95
2024-04-15T16:26:06.262Z,21.20
2024-04-15T16:28:35.005Z,21.56
2024-04-15T16:31:05.349Z,21.58
2024-04-15T16:33:33.603Z,21.94
2024-04-15T16:36:04.214Z,21.83
2024-04-15T16:38:33.098Z,22.51
2024-04-15T16:41:01.535Z,22.53
2024-04-15T16:43:29.555Z,22.92
2024-04-15T16:45:57.882Z,23.31
2024-04-15T16:48:26.192Z,23.45
2024-04-15T16:50:54.979Z,23.58
2024-04-15T16:53:23.394Z,24.03
2024-04-15T16:55:52.850Z,23.97
2024-04-15T16:58:24.659Z,24.07
2024-04-15T17:00:55.153Z,24.16
2024-04-15T17:03:23.866Z,24.59
2024-04-15T17:05:52.280Z,24.28
2024-04-15T17:08:20.425Z,24.53
2024-04-15T17:10:48.590Z,25.08
2024-04-15T17:13:16.869Z,25.55
2024-04-15T17:15:45.509Z,25.90
2024-04-15T17:18:13.732Z,25.96
2024-04-15T17:20:43.161Z,26.03
2024-04-15T17:23:11.214Z,26.15
2024-04-15T17:25:39.509Z,25.95
2024-04-15T17:28:11.690Z,26.04
2024-04-15T17:30:39.885Z,26.44
2024-04-15T17:33:08.879Z,26.45
2024-04-15T17:35:36.785Z,26.84
2024-04-15T17:38:05.137Z,26.79
2024-04-15T17:40:33.217Z,27.13
2024-04-15T17:43:01.840Z,27.36
2024-04-15T17:45:30.247Z,27.62
2024-04-15T17:47:58.594Z,27.75
2024-04-15T17:50:27.185Z,27.53
2024-04-15T17:52:55.382Z,27.67
2024-04-15T17:55:24.026Z,27.64
2024-04-15T17:57:52.990Z,27.60
2024-04-15T18:00:21.088Z,27.99
2024-04-15T18:02:49.407Z,28.09
2024-04-15T18:05:18.210Z,28.36
2024-04-15T18:07:48.412Z,28.15
2024-04-15T18:10:18.431Z,28.18
2024-04-15T18:12:48.214Z,28.10
2024-04-15T18:15:16.668Z,28.07
2024-04-15T18:17:45.234Z,28.14
2024-04-15T18:20:14.492Z,28.12
2024-04-15T18:22:42.715Z,28.24
2024-04-15T18:25:11.249Z,28.18
2024-04-15T18:27:40.362Z,28.11
2024-04-15T18:30:09.587Z,28.32
2024-04-15T18:32:37.925Z,28.28
2024-04-15T18:35:06.839Z,28.72
2024-04-15T18:37:35.244Z,28.84
2024-04-15T18:40:03.415Z,29.07
2024-04-15T18:42:32.488Z,29.53
2024-04-15T18:45:04.650Z,29.03
2024-04-15T18:47:34.525Z,29.05
2024-04-15T18:50:02.793Z,29.11
2024-04-15T18:52:31.447Z,29.10
2024-04-15T18:54:59.942Z,29.26
2024-04-15T18:57:28.328Z,29.18
2024-04-15T18:59:56.565Z,29.22
2024-04-15T19:02:24.785Z,29.39
2024-04-15T19:04:52.779Z,29.47
2024-04-15T19:07:20.793Z,29.73
2024-04-15T19:09:48.945Z,29.58
2024-04-15T19:12:18.116Z,29.89
2024-04-15T19:14:58.464Z,29.67
2024-04-15T19:17:34.028Z,29.60
2024-04-15T19:20:02.364Z,29.73
2024-04-15T19:22:30.700Z,29.77
2024-04-15T19:24:58.969Z,29.73
2024-04-15T19:27:27.267Z,29.81
2024-04-15T19:29:55.742Z,29.61
2024-04-15T19:32:24.408Z,29.81
2024-04-15T19:34:52.751Z,29.73
2024-04-15T19:37:21.205Z,29.57
2024-04-15T19:39:49.572Z,29.57
2024-04-15T19:42:18.944Z,29.53
2024-04-15T19:44:46.807Z,29.43
2024-04-15T19:47:14.987Z,29.62
2024-04-15T19:49:43.029Z,29.68
2024-04-15T19:52:11.578Z,29.67
2024-04-15T19:54:39.790Z,29.81
2024-04-15T19:57:07.910Z,29.81
2024-04-15T19:59:35.941Z,29.95
2024-04-15T20:02:04.688Z,29.94
2024-04-15T20:04:32.720Z,30.13
2024-04-15T20:07:00.918Z,30.42
2024-04-15T20:09:28.840Z,30.13
2024-04-15T20:11:56.743Z,30.17
2024-04-15T20:14:24.833Z,30.40
2024-04-15T20:17:00.325Z,30.47
2024-04-15T20:19:30.350Z,31.20
2024-04-15T20:21:58.619Z,32.48
2024-04-15T20:24:26.808Z,33.46
2024-04-15T20:26:55.030Z,34.08
2024-04-15T20:29:23.919Z,34.57
2024-04-15T20:31:51.795Z,34.92
2024-04-15T20:34:20.073Z,35.24
2024-04-15T20:36:48.230Z,35.57
2024-04-15T20:39:16.317Z,36.10
2024-04-15T20:41:44.166Z,36.67
2024-04-15T20:44:12.138Z,36.81
2024-04-15T20:46:40.597Z,37.17
2024-04-15T20:49:08.773Z,37.36
2024-04-15T20:51:36.772Z,37.82
2024-04-15T20:54:04.832Z,38.10
2024-04-15T20:56:33.117Z,38.20
2024-04-15T20:59:01.187Z,38.56
2024-04-15T21:01:29.489Z,38.55
2024-04-15T21:03:58.399Z,39.11
2024-04-15T21:06:26.644Z,38.83
2024-04-15T21:08:56.091Z,39.06
2024-04-15T21:11:23.976Z,39.25
2024-04-15T21:13:53.471Z,39.84
2024-04-15T21:16:21.307Z,40.19
2024-04-15T21:18:50.124Z,40.40
2024-04-15T21:21:18.052Z,40.66
2024-04-15T21:23:45.875Z,40.70
2024-04-15T21:26:14.167Z,40.87
2024-04-15T21:28:42.154Z,41.19
2024-04-15T21:31:10.145Z,41.23
2024-04-15T21:33:38.226Z,41.52
2024-04-15T21:36:08.426Z,41.77
2024-04-15T21:38:36.393Z,42.37
2024-04-15T21:41:04.748Z,41.75
2024-04-15T21:43:32.949Z,42.16
2024-04-15T21:46:00.822Z,42.21
2024-04-15T21:48:29.070Z,42.58
2024-04-15T21:50:57.323Z,42.67
2024-04-15T21:53:25.728Z,43.01
2024-04-15T21:55:54.095Z,43.13
2024-04-15T21:58:22.111Z,43.41
2024-04-15T22:00:50.505Z,43.14
2024-04-15T22:03:18.688Z,43.63
2024-04-15T22:05:46.951Z,43.74
2024-04-15T22:08:14.894Z,43.89
2024-04-15T22:10:42.979Z,44.05
2024-04-15T22:13:11.006Z,44.10
2024-04-15T22:15:39.289Z,44.14
2024-04-15T22:18:08.190Z,44.02
2024-04-15T22:20:36.153Z,44.43
2024-04-15T22:23:04.770Z,44.47
2024-04-15T22:25:33.191Z,44.31
2024-04-15T22:28:01.266Z,44.57
2024-04-15T22:30:29.277Z,44.40
2024-04-15T22:32:57.471Z,44.48
2024-04-15T22:35:25.914Z,44.98
2024-04-15T22:37:54.035Z,45.84
2024-04-15T22:40:22.679Z,46.33
2024-04-15T22:42:52.703Z,46.14
2024-04-15T22:45:20.655Z,45.96
2024-04-15T22:47:48.701Z,45.84
2024-04-15T22:50:16.943Z,45.95
2024-04-15T22:52:44.739Z,46.51
2024-04-15T22:55:12.567Z,45.97
2024-04-15T22:57:41.015Z,46.14
2024-04-15T23:00:09.745Z,46.06
2024-04-15T23:02:37.633Z,46.15
2024-04-15T23:05:06.025Z,46.29
2024-04-15T23:07:34.259Z,46.81
2024-04-15T23:10:02.378Z,46.90
2024-04-15T23:12:30.613Z,47.24
2024-04-15T23:14:58.546Z,46.92
2024-04-15T23:17:26.456Z,47.24
2024-04-15T23:19:54.487Z,47.29
2024-04-15T23:22:22.358Z,47.04
2024-04-15T23:24:50.318Z,47.21
2024-04-15T23:27:18.337Z,47.27
2024-04-15T23:29:46.425Z,47.38
2024-04-15T23:32:14.377Z,47.39
2024-04-15T23:34:42.174Z,47.68
2024-04-15T23:37:10.246Z,47.63
2024-04-15T23:39:38.359Z,47.94
2024-04-15T23:42:06.167Z,48.08
2024-04-15T23:44:34.101Z,48.02
2024-04-15T23:47:20.767Z,48.40
2024-04-15T23:50:07.692Z,48.17
2024-04-15T23:52:54.576Z,48.23
2024-04-15T23:55:41.307Z,48.49
2024-04-15T23:58:10.529Z,48.89
